sensor_id;sensor_type;location;lat;lon;timestamp;P1;durP1;ratioP1;P2;durP2;ratioP2
76896;SDS011;65856;52.178;21.176;2023-02-19T00:01:45;8.20;;;3.90;;
76896;SDS011;65856;52.178;21.176;2023-02-19T00:04:15;6.60;;;4.20;;
76896;SDS011;65856;52.178;21.176;2023-02-19T00:06:45;7.30;;;4.00;;
76896;SDS011;65856;52.178;21.176;2023-02-19T00:09:17;8.90;;;4.00;;
76896;SDS011;65856;52.178;21.176;2023-02-19T00:11:45;8.80;;;3.70;;
76896;SDS011;65856;52.178;21.176;2023-02-19T00:14:16;10.90;;;3.20;;
76896;SDS011;65856;52.178;21.176;2023-02-19T00:16:45;7.00;;;3.60;;
76896;SDS011;65856;52.178;21.176;2023-02-19T00:19:15;6.00;;;3.00;;
76896;SDS011;65856;52.178;21.176;2023-02-19T00:21:45;5.90;;;3.10;;
76896;SDS011;65856;52.178;21.176;2023-02-19T00:24:14;9.80;;;3.30;;
76896;SDS011;65856;52.178;21.176;2023-02-19T00:26:42;7.00;;;3.10;;
76896;SDS011;65856;52.178;21.176;2023-02-19T00:29:13;7.70;;;3.20;;
76896;SDS011;65856;52.178;21.176;2023-02-19T00:31:43;8.00;;;2.90;;
76896;SDS011;65856;52.178;21.176;2023-02-19T00:34:12;6.40;;;2.80;;
76896;SDS011;65856;52.178;21.176;2023-02-19T00:36:41;7.50;;;2.70;;
76896;SDS011;65856;52.178;21.176;2023-02-19T00:39:12;6.20;;;3.00;;
76896;SDS011;65856;52.178;21.176;2023-02-19T00:41:41;4.60;;;2.50;;
76896;SDS011;65856;52.178;21.176;2023-02-19T00:44:10;6.00;;;2.50;;
76896;SDS011;65856;52.178;21.176;2023-02-19T00:46:40;7.20;;;2.70;;
76896;SDS011;65856;52.178;21.176;2023-02-19T00:49:13;6.80;;;2.40;;
76896;SDS011;65856;52.178;21.176;2023-02-19T00:51:44;6.70;;;2.60;;
76896;SDS011;65856;52.178;21.176;2023-02-19T00:54:12;6.30;;;2.60;;
76896;SDS011;65856;52.178;21.176;2023-02-19T00:56:40;6.60;;;2.60;;
76896;SDS011;65856;52.178;21.176;2023-02-19T00:59:08;5.70;;;2.60;;
76896;SDS011;65856;52.178;21.176;2023-02-19T01:01:36;8.40;;;2.70;;
76896;SDS011;65856;52.178;21.176;2023-02-19T01:04:04;7.10;;;2.50;;
76896;SDS011;65856;52.178;21.176;2023-02-19T01:06:32;6.00;;;2.90;;
76896;SDS011;65856;52.178;21.176;2023-02-19T01:09:01;8.90;;;3.30;;
76896;SDS011;65856;52.178;21.176;2023-02-19T01:11:29;7.10;;;2.90;;
76896;SDS011;65856;52.178;21.176;2023-02-19T01:13:57;9.00;;;3.00;;
76896;SDS011;65856;52.178;21.176;2023-02-19T01:16:25;5.20;;;2.90;;
76896;SDS011;65856;52.178;21.176;2023-02-19T01:18:54;6.10;;;2.80;;
76896;SDS011;65856;52.178;21.176;2023-02-19T01:21:24;4.40;;;2.50;;
76896;SDS011;65856;52.178;21.176;2023-02-19T01:23:54;6.30;;;2.80;;
76896;SDS011;65856;52.178;21.176;2023-02-19T01:26:24;10.20;;;2.60;;
76896;SDS011;65856;52.178;21.176;2023-02-19T01:28:53;5.20;;;2.60;;
76896;SDS011;65856;52.178;21.176;2023-02-19T01:31:23;5.20;;;2.30;;
76896;SDS011;65856;52.178;21.176;2023-02-19T01:33:52;6.30;;;2.40;;
76896;SDS011;65856;52.178;21.176;2023-02-19T01:36:22;6.30;;;2.70;;
76896;SDS011;65856;52.178;21.176;2023-02-19T01:38:50;6.70;;;2.30;;
76896;SDS011;65856;52.178;21.176;2023-02-19T01:41:21;6.20;;;2.20;;
76896;SDS011;65856;52.178;21.176;2023-02-19T01:44:00;6.80;;;2.30;;
76896;SDS011;65856;52.178;21.176;2023-02-19T01:46:31;5.60;;;2.20;;
76896;SDS011;65856;52.178;21.176;2023-02-19T01:49:02;6.40;;;2.30;;
76896;SDS011;65856;52.178;21.176;2023-02-19T01:51:36;5.70;;;2.30;;
76896;SDS011;65856;52.178;21.176;2023-02-19T01:54:09;5.80;;;2.10;;
76896;SDS011;65856;52.178;21.176;2023-02-19T01:56:40;6.30;;;2.40;;
76896;SDS011;65856;52.178;21.176;2023-02-19T01:59:09;5.30;;;2.40;;
76896;SDS011;65856;52.178;21.176;2023-02-19T02:01:38;4.90;;;2.30;;
76896;SDS011;65856;52.178;21.176;2023-02-19T02:04:08;4.90;;;2.30;;
76896;SDS011;65856;52.178;21.176;2023-02-19T02:06:41;8.50;;;2.60;;
76896;SDS011;65856;52.178;21.176;2023-02-19T02:09:12;5.70;;;2.40;;
76896;SDS011;65856;52.178;21.176;2023-02-19T02:11:58;7.50;;;2.70;;
76896;SDS011;65856;52.178;21.176;2023-02-19T02:14:29;7.70;;;2.50;;
76896;SDS011;65856;52.178;21.176;2023-02-19T02:17:10;8.10;;;3.00;;
76896;SDS011;65856;52.178;21.176;2023-02-19T02:20:00;6.80;;;2.50;;
76896;SDS011;65856;52.178;21.176;2023-02-19T02:25:22;4.70;;;2.40;;
76896;SDS011;65856;52.178;21.176;2023-02-19T02:28:15;8.50;;;2.70;;
76896;SDS011;65856;52.178;21.176;2023-02-19T02:30:57;7.00;;;2.90;;
76896;SDS011;65856;52.178;21.176;2023-02-19T02:33:38;10.90;;;2.80;;
76896;SDS011;65856;52.178;21.176;2023-02-19T02:36:13;6.90;;;2.90;;
76896;SDS011;65856;52.178;21.176;2023-02-19T02:38:45;5.90;;;2.50;;
76896;SDS011;65856;52.178;21.176;2023-02-19T02:41:14;6.40;;;2.90;;
76896;SDS011;65856;52.178;21.176;2023-02-19T02:43:42;8.70;;;3.20;;
76896;SDS011;65856;52.178;21.176;2023-02-19T02:46:11;7.80;;;3.60;;
76896;SDS011;65856;52.178;21.176;2023-02-19T02:48:45;6.70;;;2.80;;
76896;SDS011;65856;52.178;21.176;2023-02-19T02:51:22;6.30;;;3.10;;
76896;SDS011;65856;52.178;21.176;2023-02-19T02:53:57;7.00;;;2.70;;
76896;SDS011;65856;52.178;21.176;2023-02-19T02:56:47;8.70;;;2.80;;
76896;SDS011;65856;52.178;21.176;2023-02-19T02:59:18;6.70;;;3.10;;
76896;SDS011;65856;52.178;21.176;2023-02-19T03:01:51;7.60;;;2.70;;
76896;SDS011;65856;52.178;21.176;2023-02-19T03:04:43;8.10;;;3.00;;
76896;SDS011;65856;52.178;21.176;2023-02-19T03:07:37;8.10;;;3.00;;
76896;SDS011;65856;52.178;21.176;2023-02-19T03:10:12;9.90;;;2.80;;
76896;SDS011;65856;52.178;21.176;2023-02-19T03:12:44;7.30;;;3.00;;
76896;SDS011;65856;52.178;21.176;2023-02-19T03:15:35;4.20;;;2.40;;
76896;SDS011;65856;52.178;21.176;2023-02-19T03:18:27;5.00;;;2.10;;
76896;SDS011;65856;52.178;21.176;2023-02-19T03:21:19;7.10;;;2.80;;
76896;SDS011;65856;52.178;21.176;2023-02-19T03:23:49;8.00;;;2.70;;
76896;SDS011;65856;52.178;21.176;2023-02-19T03:26:37;6.70;;;2.50;;
76896;SDS011;65856;52.178;21.176;2023-02-19T03:29:07;10.40;;;2.70;;
76896;SDS011;65856;52.178;21.176;2023-02-19T03:31:52;6.00;;;2.30;;
76896;SDS011;65856;52.178;21.176;2023-02-19T03:34:26;7.80;;;2.30;;
76896;SDS011;65856;52.178;21.176;2023-02-19T03:37:03;8.40;;;3.30;;
76896;SDS011;65856;52.178;21.176;2023-02-19T03:39:35;3.40;;;2.10;;
76896;SDS011;65856;52.178;21.176;2023-02-19T03:42:16;8.20;;;2.40;;
76896;SDS011;65856;52.178;21.176;2023-02-19T03:45:04;7.00;;;2.30;;
76896;SDS011;65856;52.178;21.176;2023-02-19T03:47:46;4.00;;;1.70;;
76896;SDS011;65856;52.178;21.176;2023-02-19T03:50:22;6.90;;;2.10;;
76896;SDS011;65856;52.178;21.176;2023-02-19T03:53:01;5.80;;;2.10;;
76896;SDS011;65856;52.178;21.176;2023-02-19T03:55:40;5.50;;;2.30;;
76896;SDS011;65856;52.178;21.176;2023-02-19T03:58:18;5.80;;;2.10;;
76896;SDS011;65856;52.178;21.176;2023-02-19T04:00:55;5.70;;;2.00;;
76896;SDS011;65856;52.178;21.176;2023-02-19T04:03:34;5.20;;;2.10;;
76896;SDS011;65856;52.178;21.176;2023-02-19T04:06:11;6.20;;;2.20;;
76896;SDS011;65856;52.178;21.176;2023-02-19T04:08:44;4.80;;;1.90;;
76896;SDS011;65856;52.178;21.176;2023-02-19T04:11:16;6.50;;;1.80;;
76896;SDS011;65856;52.178;21.176;2023-02-19T04:13:49;4.30;;;1.50;;
76896;SDS011;65856;52.178;21.176;2023-02-19T04:16:25;9.60;;;2.20;;
76896;SDS011;65856;52.178;21.176;2023-02-19T04:18:57;8.40;;;3.40;;
76896;SDS011;65856;52.178;21.176;2023-02-19T04:21:30;7.20;;;2.00;;
76896;SDS011;65856;52.178;21.176;2023-02-19T04:24:03;7.80;;;1.60;;
76896;SDS011;65856;52.178;21.176;2023-02-19T04:26:36;3.80;;;1.60;;
76896;SDS011;65856;52.178;21.176;2023-02-19T04:29:04;6.10;;;2.10;;
76896;SDS011;65856;52.178;21.176;2023-02-19T04:31:32;6.60;;;1.80;;
76896;SDS011;65856;52.178;21.176;2023-02-19T04:34:02;5.80;;;2.00;;
76896;SDS011;65856;52.178;21.176;2023-02-19T04:36:30;4.90;;;1.90;;
76896;SDS011;65856;52.178;21.176;2023-02-19T04:38:59;5.50;;;1.90;;
76896;SDS011;65856;52.178;21.176;2023-02-19T04:41:27;5.80;;;1.80;;
76896;SDS011;65856;52.178;21.176;2023-02-19T04:43:54;5.90;;;1.40;;
76896;SDS011;65856;52.178;21.176;2023-02-19T04:46:22;6.90;;;1.80;;
76896;SDS011;65856;52.178;21.176;2023-02-19T04:48:50;11.80;;;3.30;;
76896;SDS011;65856;52.178;21.176;2023-02-19T04:51:17;9.30;;;1.80;;
76896;SDS011;65856;52.178;21.176;2023-02-19T04:53:45;5.50;;;1.80;;
76896;SDS011;65856;52.178;21.176;2023-02-19T04:56:14;6.60;;;2.00;;
76896;SDS011;65856;52.178;21.176;2023-02-19T04:58:43;5.60;;;2.00;;
76896;SDS011;65856;52.178;21.176;2023-02-19T05:01:12;6.20;;;1.60;;
76896;SDS011;65856;52.178;21.176;2023-02-19T05:03:40;6.10;;;1.80;;
76896;SDS011;65856;52.178;21.176;2023-02-19T05:06:09;4.70;;;1.80;;
76896;SDS011;65856;52.178;21.176;2023-02-19T05:08:38;7.20;;;1.90;;
76896;SDS011;65856;52.178;21.176;2023-02-19T05:11:08;4.90;;;1.60;;
76896;SDS011;65856;52.178;21.176;2023-02-19T05:13:37;6.80;;;1.90;;
76896;SDS011;65856;52.178;21.176;2023-02-19T05:16:09;7.10;;;1.80;;
76896;SDS011;65856;52.178;21.176;2023-02-19T05:18:39;5.30;;;1.80;;
76896;SDS011;65856;52.178;21.176;2023-02-19T05:21:08;8.10;;;2.10;;
76896;SDS011;65856;52.178;21.176;2023-02-19T05:23:37;7.00;;;2.10;;
76896;SDS011;65856;52.178;21.176;2023-02-19T05:26:06;3.70;;;1.70;;
76896;SDS011;65856;52.178;21.176;2023-02-19T05:28:35;6.50;;;1.80;;
76896;SDS011;65856;52.178;21.176;2023-02-19T05:31:07;7.70;;;2.20;;
76896;SDS011;65856;52.178;21.176;2023-02-19T05:33:36;7.30;;;2.10;;
76896;SDS011;65856;52.178;21.176;2023-02-19T05:36:07;8.70;;;2.10;;
76896;SDS011;65856;52.178;21.176;2023-02-19T05:38:37;7.50;;;2.70;;
76896;SDS011;65856;52.178;21.176;2023-02-19T05:41:11;7.10;;;2.50;;
76896;SDS011;65856;52.178;21.176;2023-02-19T05:43:41;7.80;;;2.40;;
76896;SDS011;65856;52.178;21.176;2023-02-19T05:46:11;6.30;;;1.80;;
76896;SDS011;65856;52.178;21.176;2023-02-19T05:48:40;8.00;;;2.40;;
76896;SDS011;65856;52.178;21.176;2023-02-19T05:51:11;4.80;;;2.50;;
76896;SDS011;65856;52.178;21.176;2023-02-19T05:53:41;5.80;;;2.50;;
76896;SDS011;65856;52.178;21.176;2023-02-19T05:56:24;5.00;;;2.60;;
76896;SDS011;65856;52.178;21.176;2023-02-19T05:58:56;8.20;;;2.90;;
76896;SDS011;65856;52.178;21.176;2023-02-19T06:01:27;7.00;;;2.80;;
76896;SDS011;65856;52.178;21.176;2023-02-19T06:03:55;9.80;;;2.60;;
76896;SDS011;65856;52.178;21.176;2023-02-19T06:06:25;8.40;;;3.40;;
76896;SDS011;65856;52.178;21.176;2023-02-19T06:08:53;7.70;;;2.90;;
76896;SDS011;65856;52.178;21.176;2023-02-19T06:11:21;9.10;;;2.50;;
76896;SDS011;65856;52.178;21.176;2023-02-19T06:13:50;8.00;;;2.90;;
76896;SDS011;65856;52.178;21.176;2023-02-19T06:16:18;7.00;;;2.50;;
76896;SDS011;65856;52.178;21.176;2023-02-19T06:18:47;9.30;;;3.00;;
76896;SDS011;65856;52.178;21.176;2023-02-19T06:21:16;6.90;;;2.80;;
76896;SDS011;65856;52.178;21.176;2023-02-19T06:23:44;7.50;;;3.10;;
76896;SDS011;65856;52.178;21.176;2023-02-19T06:26:14;9.20;;;2.90;;
76896;SDS011;65856;52.178;21.176;2023-02-19T06:28:44;11.30;;;3.10;;
76896;SDS011;65856;52.178;21.176;2023-02-19T06:31:12;10.70;;;3.20;;
76896;SDS011;65856;52.178;21.176;2023-02-19T06:33:43;7.20;;;2.60;;
76896;SDS011;65856;52.178;21.176;2023-02-19T06:36:13;10.80;;;3.40;;
76896;SDS011;65856;52.178;21.176;2023-02-19T06:38:42;6.50;;;3.10;;
76896;SDS011;65856;52.178;21.176;2023-02-19T06:41:11;11.20;;;3.30;;
76896;SDS011;65856;52.178;21.176;2023-02-19T06:43:40;8.60;;;3.20;;
76896;SDS011;65856;52.178;21.176;2023-02-19T06:46:09;9.20;;;3.40;;
76896;SDS011;65856;52.178;21.176;2023-02-19T06:48:38;6.80;;;2.70;;
76896;SDS011;65856;52.178;21.176;2023-02-19T06:51:08;7.50;;;3.00;;
76896;SDS011;65856;52.178;21.176;2023-02-19T06:53:37;7.40;;;3.30;;
76896;SDS011;65856;52.178;21.176;2023-02-19T06:56:18;5.90;;;3.40;;
76896;SDS011;65856;52.178;21.176;2023-02-19T06:58:48;13.30;;;3.50;;
76896;SDS011;65856;52.178;21.176;2023-02-19T07:01:16;12.60;;;3.80;;
76896;SDS011;65856;52.178;21.176;2023-02-19T07:03:44;9.10;;;3.60;;
76896;SDS011;65856;52.178;21.176;2023-02-19T07:06:12;11.30;;;3.60;;
76896;SDS011;65856;52.178;21.176;2023-02-19T07:08:39;9.90;;;3.70;;
76896;SDS011;65856;52.178;21.176;2023-02-19T07:11:07;7.60;;;3.40;;
76896;SDS011;65856;52.178;21.176;2023-02-19T07:13:35;9.70;;;3.20;;
76896;SDS011;65856;52.178;21.176;2023-02-19T07:16:05;9.30;;;3.20;;
76896;SDS011;65856;52.178;21.176;2023-02-19T07:18:35;7.60;;;2.80;;
76896;SDS011;65856;52.178;21.176;2023-02-19T07:21:05;9.30;;;3.10;;
76896;SDS011;65856;52.178;21.176;2023-02-19T07:23:34;6.80;;;3.10;;
76896;SDS011;65856;52.178;21.176;2023-02-19T07:26:03;7.40;;;3.30;;
76896;SDS011;65856;52.178;21.176;2023-02-19T07:28:34;10.70;;;3.60;;
76896;SDS011;65856;52.178;21.176;2023-02-19T07:31:02;9.40;;;2.80;;
76896;SDS011;65856;52.178;21.176;2023-02-19T07:33:30;6.30;;;3.10;;
76896;SDS011;65856;52.178;21.176;2023-02-19T07:35:58;9.80;;;3.40;;
76896;SDS011;65856;52.178;21.176;2023-02-19T07:38:26;10.90;;;4.00;;
76896;SDS011;65856;52.178;21.176;2023-02-19T07:40:56;9.50;;;3.40;;
76896;SDS011;65856;52.178;21.176;2023-02-19T07:43:26;8.00;;;3.40;;
76896;SDS011;65856;52.178;21.176;2023-02-19T07:45:55;9.10;;;3.60;;
76896;SDS011;65856;52.178;21.176;2023-02-19T07:48:22;8.10;;;3.40;;
76896;SDS011;65856;52.178;21.176;2023-02-19T07:50:51;8.40;;;3.20;;
76896;SDS011;65856;52.178;21.176;2023-02-19T07:53:19;10.70;;;3.60;;
76896;SDS011;65856;52.178;21.176;2023-02-19T07:55:48;12.50;;;3.90;;
76896;SDS011;65856;52.178;21.176;2023-02-19T07:58:16;9.10;;;3.70;;
76896;SDS011;65856;52.178;21.176;2023-02-19T08:00:44;9.70;;;3.60;;
76896;SDS011;65856;52.178;21.176;2023-02-19T08:03:12;8.50;;;4.10;;
76896;SDS011;65856;52.178;21.176;2023-02-19T08:05:41;13.10;;;4.30;;
76896;SDS011;65856;52.178;21.176;2023-02-19T08:08:10;10.60;;;3.70;;
76896;SDS011;65856;52.178;21.176;2023-02-19T08:10:40;12.10;;;3.90;;
76896;SDS011;65856;52.178;21.176;2023-02-19T08:13:27;11.80;;;3.90;;
76896;SDS011;65856;52.178;21.176;2023-02-19T08:16:08;11.90;;;3.90;;
76896;SDS011;65856;52.178;21.176;2023-02-19T08:18:38;13.80;;;4.10;;
76896;SDS011;65856;52.178;21.176;2023-02-19T08:21:06;15.20;;;5.40;;
76896;SDS011;65856;52.178;21.176;2023-02-19T08:23:34;16.50;;;4.80;;
76896;SDS011;65856;52.178;21.176;2023-02-19T08:26:02;14.10;;;4.40;;
76896;SDS011;65856;52.178;21.176;2023-02-19T08:28:30;12.40;;;4.00;;
76896;SDS011;65856;52.178;21.176;2023-02-19T08:31:00;10.80;;;3.80;;
76896;SDS011;65856;52.178;21.176;2023-02-19T08:33:30;18.40;;;4.90;;
76896;SDS011;65856;52.178;21.176;2023-02-19T08:36:01;17.20;;;5.00;;
76896;SDS011;65856;52.178;21.176;2023-02-19T08:38:30;12.00;;;4.60;;
76896;SDS011;65856;52.178;21.176;2023-02-19T08:41:02;10.60;;;4.90;;
76896;SDS011;65856;52.178;21.176;2023-02-19T08:43:30;17.90;;;4.40;;
76896;SDS011;65856;52.178;21.176;2023-02-19T08:45:58;19.60;;;4.80;;
76896;SDS011;65856;52.178;21.176;2023-02-19T08:48:26;11.70;;;3.90;;
76896;SDS011;65856;52.178;21.176;2023-02-19T08:50:55;18.40;;;4.60;;
76896;SDS011;65856;52.178;21.176;2023-02-19T08:53:25;14.10;;;5.10;;
76896;SDS011;65856;52.178;21.176;2023-02-19T08:55:53;11.50;;;4.80;;
76896;SDS011;65856;52.178;21.176;2023-02-19T08:58:21;12.90;;;4.50;;
76896;SDS011;65856;52.178;21.176;2023-02-19T09:00:52;11.80;;;4.70;;
76896;SDS011;65856;52.178;21.176;2023-02-19T09:03:19;8.40;;;3.90;;
76896;SDS011;65856;52.178;21.176;2023-02-19T09:05:47;10.30;;;3.60;;
76896;SDS011;65856;52.178;21.176;2023-02-19T09:08:16;7.70;;;3.50;;
76896;SDS011;65856;52.178;21.176;2023-02-19T09:10:44;10.10;;;4.00;;
76896;SDS011;65856;52.178;21.176;2023-02-19T09:13:22;7.30;;;3.70;;
76896;SDS011;65856;52.178;21.176;2023-02-19T09:15:50;7.70;;;3.80;;
76896;SDS011;65856;52.178;21.176;2023-02-19T09:18:17;8.60;;;3.40;;
76896;SDS011;65856;52.178;21.176;2023-02-19T09:20:45;6.50;;;3.00;;
76896;SDS011;65856;52.178;21.176;2023-02-19T09:23:13;9.30;;;3.30;;
76896;SDS011;65856;52.178;21.176;2023-02-19T09:25:40;8.40;;;3.70;;
76896;SDS011;65856;52.178;21.176;2023-02-19T09:28:08;10.60;;;3.80;;
76896;SDS011;65856;52.178;21.176;2023-02-19T09:30:36;9.80;;;3.60;;
76896;SDS011;65856;52.178;21.176;2023-02-19T09:33:04;9.80;;;3.00;;
76896;SDS011;65856;52.178;21.176;2023-02-19T09:35:32;9.60;;;3.50;;
76896;SDS011;65856;52.178;21.176;2023-02-19T09:38:00;8.10;;;2.80;;
76896;SDS011;65856;52.178;21.176;2023-02-19T09:40:29;8.10;;;3.00;;
76896;SDS011;65856;52.178;21.176;2023-02-19T09:42:58;7.30;;;3.00;;
76896;SDS011;65856;52.178;21.176;2023-02-19T09:45:26;7.10;;;3.30;;
76896;SDS011;65856;52.178;21.176;2023-02-19T09:47:56;8.50;;;2.90;;
76896;SDS011;65856;52.178;21.176;2023-02-19T09:50:30;7.20;;;3.30;;
76896;SDS011;65856;52.178;21.176;2023-02-19T09:53:03;7.20;;;3.50;;
76896;SDS011;65856;52.178;21.176;2023-02-19T09:55:40;6.00;;;3.20;;
76896;SDS011;65856;52.178;21.176;2023-02-19T09:58:20;8.60;;;3.40;;
76896;SDS011;65856;52.178;21.176;2023-02-19T10:00:53;9.30;;;3.40;;
76896;SDS011;65856;52.178;21.176;2023-02-19T10:03:25;6.50;;;3.10;;
76896;SDS011;65856;52.178;21.176;2023-02-19T10:05:58;12.10;;;3.40;;
76896;SDS011;65856;52.178;21.176;2023-02-19T10:08:31;9.80;;;3.30;;
76896;SDS011;65856;52.178;21.176;2023-02-19T10:11:02;5.90;;;3.30;;
76896;SDS011;65856;52.178;21.176;2023-02-19T10:13:34;7.40;;;3.00;;
76896;SDS011;65856;52.178;21.176;2023-02-19T10:16:05;8.60;;;3.30;;
76896;SDS011;65856;52.178;21.176;2023-02-19T10:18:40;9.90;;;3.20;;
76896;SDS011;65856;52.178;21.176;2023-02-19T10:21:11;4.90;;;2.80;;
76896;SDS011;65856;52.178;21.176;2023-02-19T10:23:43;7.50;;;3.20;;
76896;SDS011;65856;52.178;21.176;2023-02-19T10:26:12;7.90;;;2.90;;
76896;SDS011;65856;52.178;21.176;2023-02-19T10:28:40;8.40;;;2.80;;
76896;SDS011;65856;52.178;21.176;2023-02-19T10:31:16;7.10;;;2.70;;
76896;SDS011;65856;52.178;21.176;2023-02-19T10:33:49;4.50;;;2.50;;
76896;SDS011;65856;52.178;21.176;2023-02-19T10:36:25;9.50;;;2.80;;
76896;SDS011;65856;52.178;21.176;2023-02-19T10:38:55;5.40;;;2.80;;
76896;SDS011;65856;52.178;21.176;2023-02-19T10:41:25;6.20;;;2.70;;
76896;SDS011;65856;52.178;21.176;2023-02-19T10:43:55;6.20;;;2.90;;
76896;SDS011;65856;52.178;21.176;2023-02-19T10:46:33;4.60;;;2.60;;
76896;SDS011;65856;52.178;21.176;2023-02-19T10:49:04;8.10;;;2.60;;
76896;SDS011;65856;52.178;21.176;2023-02-19T10:51:45;8.00;;;2.70;;
76896;SDS011;65856;52.178;21.176;2023-02-19T10:54:18;8.30;;;2.60;;
76896;SDS011;65856;52.178;21.176;2023-02-19T10:56:49;7.30;;;2.80;;
76896;SDS011;65856;52.178;21.176;2023-02-19T10:59:25;7.60;;;2.90;;
76896;SDS011;65856;52.178;21.176;2023-02-19T11:01:56;10.30;;;3.20;;
76896;SDS011;65856;52.178;21.176;2023-02-19T11:04:25;6.00;;;2.90;;
76896;SDS011;65856;52.178;21.176;2023-02-19T11:06:55;6.20;;;2.90;;
76896;SDS011;65856;52.178;21.176;2023-02-19T11:09:27;5.50;;;2.60;;
76896;SDS011;65856;52.178;21.176;2023-02-19T11:11:59;6.90;;;2.70;;
76896;SDS011;65856;52.178;21.176;2023-02-19T11:14:31;8.80;;;3.40;;
76896;SDS011;65856;52.178;21.176;2023-02-19T11:17:01;6.00;;;2.60;;
76896;SDS011;65856;52.178;21.176;2023-02-19T11:19:35;6.00;;;2.30;;
76896;SDS011;65856;52.178;21.176;2023-02-19T11:22:19;6.70;;;2.70;;
76896;SDS011;65856;52.178;21.176;2023-02-19T11:25:00;4.00;;;2.10;;
76896;SDS011;65856;52.178;21.176;2023-02-19T11:27:31;5.60;;;2.00;;
76896;SDS011;65856;52.178;21.176;2023-02-19T11:30:26;4.60;;;2.00;;
76896;SDS011;65856;52.178;21.176;2023-02-19T11:33:24;5.70;;;2.10;;
76896;SDS011;65856;52.178;21.176;2023-02-19T11:35:57;5.70;;;2.60;;
76896;SDS011;65856;52.178;21.176;2023-02-19T11:38:42;4.10;;;1.90;;
76896;SDS011;65856;52.178;21.176;2023-02-19T11:41:13;5.90;;;2.30;;
76896;SDS011;65856;52.178;21.176;2023-02-19T11:43:56;6.20;;;2.10;;
76896;SDS011;65856;52.178;21.176;2023-02-19T11:46:38;6.10;;;2.50;;
76896;SDS011;65856;52.178;21.176;2023-02-19T11:49:20;6.60;;;2.10;;
76896;SDS011;65856;52.178;21.176;2023-02-19T11:52:11;6.10;;;2.40;;
76896;SDS011;65856;52.178;21.176;2023-02-19T11:54:50;5.90;;;2.30;;
76896;SDS011;65856;52.178;21.176;2023-02-19T11:57:38;5.70;;;1.80;;
76896;SDS011;65856;52.178;21.176;2023-02-19T12:00:24;7.20;;;2.10;;
76896;SDS011;65856;52.178;21.176;2023-02-19T12:03:17;4.20;;;2.00;;
76896;SDS011;65856;52.178;21.176;2023-02-19T12:06:08;5.40;;;2.10;;
76896;SDS011;65856;52.178;21.176;2023-02-19T12:12:09;5.10;;;1.80;;
76896;SDS011;65856;52.178;21.176;2023-02-19T12:15:18;3.70;;;1.90;;
76896;SDS011;65856;52.178;21.176;2023-02-19T12:18:20;5.50;;;1.90;;
76896;SDS011;65856;52.178;21.176;2023-02-19T12:21:09;4.20;;;1.70;;
76896;SDS011;65856;52.178;21.176;2023-02-19T12:24:13;5.20;;;2.10;;
76896;SDS011;65856;52.178;21.176;2023-02-19T12:27:01;8.00;;;2.00;;
76896;SDS011;65856;52.178;21.176;2023-02-19T12:29:53;4.20;;;2.10;;
76896;SDS011;65856;52.178;21.176;2023-02-19T12:32:45;4.80;;;2.20;;
76896;SDS011;65856;52.178;21.176;2023-02-19T12:38:21;4.80;;;2.10;;
76896;SDS011;65856;52.178;21.176;2023-02-19T12:41:05;5.70;;;2.00;;
76896;SDS011;65856;52.178;21.176;2023-02-19T12:43:45;5.40;;;1.90;;
76896;SDS011;65856;52.178;21.176;2023-02-19T12:46:21;4.10;;;1.90;;
76896;SDS011;65856;52.178;21.176;2023-02-19T12:48:57;4.10;;;1.80;;
76896;SDS011;65856;52.178;21.176;2023-02-19T12:51:36;6.10;;;2.30;;
76896;SDS011;65856;52.178;21.176;2023-02-19T12:54:13;5.10;;;2.00;;
76896;SDS011;65856;52.178;21.176;2023-02-19T12:56:51;7.40;;;2.40;;
76896;SDS011;65856;52.178;21.176;2023-02-19T12:59:29;5.60;;;2.50;;
76896;SDS011;65856;52.178;21.176;2023-02-19T13:02:09;6.60;;;2.20;;
76896;SDS011;65856;52.178;21.176;2023-02-19T13:04:46;7.20;;;1.90;;
76896;SDS011;65856;52.178;21.176;2023-02-19T13:07:24;4.10;;;2.00;;
76896;SDS011;65856;52.178;21.176;2023-02-19T13:10:02;7.00;;;2.30;;
76896;SDS011;65856;52.178;21.176;2023-02-19T13:12:37;5.00;;;2.00;;
76896;SDS011;65856;52.178;21.176;2023-02-19T13:15:14;5.80;;;1.90;;
76896;SDS011;65856;52.178;21.176;2023-02-19T13:17:49;4.40;;;1.90;;
76896;SDS011;65856;52.178;21.176;2023-02-19T13:20:24;5.70;;;2.10;;
76896;SDS011;65856;52.178;21.176;2023-02-19T13:23:01;4.70;;;1.80;;
76896;SDS011;65856;52.178;21.176;2023-02-19T13:26:10;3.50;;;2.00;;
76896;SDS011;65856;52.178;21.176;2023-02-19T13:28:58;6.70;;;1.70;;
76896;SDS011;65856;52.178;21.176;2023-02-19T13:35:19;3.90;;;1.70;;
76896;SDS011;65856;52.178;21.176;2023-02-19T13:37:54;5.00;;;1.50;;
76896;SDS011;65856;52.178;21.176;2023-02-19T13:40:31;6.30;;;1.90;;
76896;SDS011;65856;52.178;21.176;2023-02-19T13:43:02;6.30;;;1.80;;
76896;SDS011;65856;52.178;21.176;2023-02-19T13:45:34;5.10;;;1.70;;
76896;SDS011;65856;52.178;21.176;2023-02-19T13:48:24;5.30;;;1.70;;
76896;SDS011;65856;52.178;21.176;2023-02-19T13:54:25;4.30;;;1.70;;
76896;SDS011;65856;52.178;21.176;2023-02-19T13:57:27;4.50;;;1.50;;
76896;SDS011;65856;52.178;21.176;2023-02-19T13:59:56;4.50;;;1.70;;
76896;SDS011;65856;52.178;21.176;2023-02-19T14:02:32;4.60;;;1.70;;
76896;SDS011;65856;52.178;21.176;2023-02-19T14:05:04;3.60;;;1.50;;
76896;SDS011;65856;52.178;21.176;2023-02-19T14:07:50;6.60;;;1.80;;
76896;SDS011;65856;52.178;21.176;2023-02-19T14:13:57;5.70;;;1.90;;
76896;SDS011;65856;52.178;21.176;2023-02-19T14:16:49;7.90;;;2.40;;
76896;SDS011;65856;52.178;21.176;2023-02-19T14:19:43;4.00;;;1.70;;
76896;SDS011;65856;52.178;21.176;2023-02-19T14:22:50;5.60;;;1.60;;
76896;SDS011;65856;52.178;21.176;2023-02-19T14:25:40;4.90;;;1.50;;
76896;SDS011;65856;52.178;21.176;2023-02-19T14:28:18;3.70;;;1.50;;
76896;SDS011;65856;52.178;21.176;2023-02-19T14:30:51;4.90;;;1.70;;
76896;SDS011;65856;52.178;21.176;2023-02-19T14:33:21;6.90;;;1.60;;
76896;SDS011;65856;52.178;21.176;2023-02-19T14:35:53;3.40;;;1.30;;
76896;SDS011;65856;52.178;21.176;2023-02-19T14:38:26;4.00;;;1.50;;
76896;SDS011;65856;52.178;21.176;2023-02-19T14:40:58;8.40;;;1.80;;
76896;SDS011;65856;52.178;21.176;2023-02-19T14:43:27;2.90;;;1.40;;
76896;SDS011;65856;52.178;21.176;2023-02-19T14:45:58;5.70;;;1.70;;
76896;SDS011;65856;52.178;21.176;2023-02-19T14:48:31;3.10;;;1.60;;
76896;SDS011;65856;52.178;21.176;2023-02-19T14:51:06;4.60;;;1.50;;
76896;SDS011;65856;52.178;21.176;2023-02-19T14:53:40;6.60;;;1.40;;
76896;SDS011;65856;52.178;21.176;2023-02-19T14:56:18;5.80;;;1.60;;
76896;SDS011;65856;52.178;21.176;2023-02-19T14:59:07;6.70;;;2.00;;
76896;SDS011;65856;52.178;21.176;2023-02-19T15:01:58;4.60;;;1.70;;
76896;SDS011;65856;52.178;21.176;2023-02-19T15:04:28;5.90;;;2.20;;
76896;SDS011;65856;52.178;21.176;2023-02-19T15:07:06;6.80;;;2.20;;
76896;SDS011;65856;52.178;21.176;2023-02-19T15:09:40;5.10;;;2.30;;
76896;SDS011;65856;52.178;21.176;2023-02-19T15:12:15;4.30;;;2.30;;
76896;SDS011;65856;52.178;21.176;2023-02-19T15:14:45;4.90;;;2.50;;
76896;SDS011;65856;52.178;21.176;2023-02-19T15:17:20;4.10;;;2.00;;
76896;SDS011;65856;52.178;21.176;2023-02-19T15:19:51;6.00;;;2.00;;
76896;SDS011;65856;52.178;21.176;2023-02-19T15:22:23;5.90;;;1.60;;
76896;SDS011;65856;52.178;21.176;2023-02-19T15:24:53;6.00;;;1.90;;
76896;SDS011;65856;52.178;21.176;2023-02-19T15:27:23;5.00;;;1.70;;
76896;SDS011;65856;52.178;21.176;2023-02-19T15:29:52;5.70;;;1.90;;
76896;SDS011;65856;52.178;21.176;2023-02-19T15:32:21;5.40;;;2.00;;